createdAt,value
2022-07-27T00:01:07.093Z,2.00
2022-07-27T00:03:36.413Z,1.50
2022-07-27T00:06:04.217Z,1.67
2022-07-27T00:08:32.067Z,1.63
2022-07-27T00:10:59.874Z,1.55
2022-07-27T00:13:28.210Z,1.98
2022-07-27T00:15:56.036Z,1.48
2022-07-27T00:18:23.891Z,1.85
2022-07-27T00:20:52.940Z,1.65
2022-07-27T00:23:20.686Z,2.40
2022-07-27T00:25:48.434Z,2.00
2022-07-27T00:28:16.200Z,1.92
2022-07-27T00:30:44.027Z,1.55
2022-07-27T00:33:11.835Z,1.63
2022-07-27T00:35:45.289Z,1.42
2022-07-27T00:38:14.633Z,1.40
2022-07-27T00:40:42.472Z,1.17
2022-07-27T00:43:10.284Z,1.27
2022-07-27T00:45:38.253Z,1.67
2022-07-27T00:48:06.870Z,1.38
2022-07-27T00:50:35.255Z,1.55
2022-07-27T00:53:04.862Z,1.63
2022-07-27T00:55:35.112Z,1.38
2022-07-27T00:58:05.779Z,1.50
2022-07-27T01:00:33.689Z,1.58
2022-07-27T01:03:02.577Z,1.60
2022-07-27T01:05:42.475Z,1.50
2022-07-27T01:08:13.561Z,2.15
2022-07-27T01:10:43.522Z,3.47
2022-07-27T01:13:13.000Z,1.70
2022-07-27T01:15:41.634Z,1.80
2022-07-27T01:18:12.989Z,1.60
2022-07-27T01:20:41.645Z,1.65
2022-07-27T01:23:10.978Z,1.85
2022-07-27T01:25:41.138Z,1.58
2022-07-27T01:28:08.993Z,2.20
2022-07-27T01:30:36.761Z,1.55
2022-07-27T01:33:06.486Z,1.50
2022-07-27T01:35:34.832Z,1.60
2022-07-27T01:38:02.959Z,1.77
2022-07-27T01:40:32.140Z,1.77
2022-07-27T01:42:59.853Z,1.52
2022-07-27T01:45:27.679Z,1.50
2022-07-27T01:47:55.404Z,1.60
2022-07-27T01:50:23.169Z,1.80
2022-07-27T01:52:51.061Z,1.58
2022-07-27T01:55:18.811Z,1.60
2022-07-27T01:57:47.865Z,1.70
2022-07-27T02:00:16.741Z,1.85
2022-07-27T02:02:44.466Z,1.83
2022-07-27T02:05:12.511Z,1.93
2022-07-27T02:07:41.230Z,1.70
2022-07-27T02:10:10.483Z,1.90
2022-07-27T02:12:37.978Z,2.03
2022-07-27T02:15:15.171Z,1.73
2022-07-27T02:17:43.928Z,1.90
2022-07-27T02:20:14.597Z,1.92
2022-07-27T02:22:42.657Z,1.67
2022-07-27T02:25:11.846Z,1.77
2022-07-27T02:27:39.812Z,2.10
2022-07-27T02:30:11.164Z,1.87
2022-07-27T02:32:39.065Z,1.50
2022-07-27T02:35:19.439Z,1.80
2022-07-27T02:37:48.528Z,1.47
2022-07-27T02:40:17.870Z,1.60
2022-07-27T02:42:46.337Z,1.43
2022-07-27T02:45:15.884Z,1.33
2022-07-27T02:47:43.841Z,1.47
2022-07-27T02:50:11.744Z,1.63
2022-07-27T02:52:39.540Z,1.97
2022-07-27T02:55:08.355Z,1.70
2022-07-27T02:57:39.680Z,2.13
2022-07-27T03:00:11.291Z,2.40
2022-07-27T03:02:40.747Z,2.60
2022-07-27T03:05:10.108Z,2.40
2022-07-27T03:07:38.311Z,2.10
2022-07-27T03:10:07.219Z,2.33
2022-07-27T03:12:34.984Z,2.00
2022-07-27T03:15:02.789Z,2.30
2022-07-27T03:17:30.521Z,1.80
2022-07-27T03:19:59.579Z,2.00
2022-07-27T03:22:30.756Z,1.77
2022-07-27T03:24:58.688Z,2.00
2022-07-27T03:27:26.895Z,2.23
2022-07-27T03:29:54.641Z,2.00
2022-07-27T03:32:22.399Z,1.80
2022-07-27T03:34:50.142Z,2.10
2022-07-27T03:37:20.081Z,1.97
2022-07-27T03:39:47.887Z,2.23
2022-07-27T03:42:15.678Z,1.93
2022-07-27T03:44:43.484Z,1.83
2022-07-27T03:47:11.235Z,2.30
2022-07-27T03:49:39.217Z,1.80
2022-07-27T03:52:07.203Z,1.47
2022-07-27T03:54:36.288Z,1.48
2022-07-27T03:57:04.099Z,1.93
2022-07-27T03:59:31.857Z,1.80
2022-07-27T04:01:59.607Z,1.60
2022-07-27T04:04:27.364Z,2.07
2022-07-27T04:06:55.091Z,1.60
2022-07-27T04:09:22.890Z,1.57
2022-07-27T04:11:53.713Z,1.83
2022-07-27T04:14:23.481Z,1.60
2022-07-27T04:16:51.337Z,1.73
2022-07-27T04:19:19.142Z,1.77
2022-07-27T04:21:47.042Z,1.90
2022-07-27T04:24:14.866Z,2.00
2022-07-27T04:26:42.642Z,1.73
2022-07-27T04:29:12.993Z,1.57
2022-07-27T04:31:42.563Z,1.40
2022-07-27T04:34:10.326Z,1.57
2022-07-27T04:36:39.250Z,1.87
2022-07-27T04:39:07.208Z,1.60
2022-07-27T04:41:35.122Z,1.67
2022-07-27T04:44:02.898Z,1.43
2022-07-27T04:46:32.079Z,1.30
2022-07-27T04:48:59.903Z,1.60
2022-07-27T04:51:32.541Z,1.85
2022-07-27T04:54:02.192Z,1.83
2022-07-27T04:56:30.150Z,1.63
2022-07-27T04:58:57.933Z,1.42
2022-07-27T05:01:30.327Z,1.42
2022-07-27T05:04:04.043Z,2.03
2022-07-27T05:06:32.872Z,2.13
2022-07-27T05:09:00.931Z,1.80
2022-07-27T05:11:28.823Z,1.50
2022-07-27T05:13:56.567Z,1.52
2022-07-27T05:16:28.584Z,1.40
2022-07-27T05:18:57.322Z,1.65
2022-07-27T05:21:27.238Z,2.65
2022-07-27T05:23:55.014Z,1.83
2022-07-27T05:26:23.193Z,1.40
2022-07-27T05:28:51.099Z,1.60
2022-07-27T05:31:19.663Z,1.75
2022-07-27T05:33:49.832Z,1.42
2022-07-27T05:36:19.160Z,1.58
2022-07-27T05:38:48.261Z,1.50
2022-07-27T05:41:16.039Z,1.60
2022-07-27T05:43:43.814Z,1.92
2022-07-27T05:46:11.678Z,1.52
2022-07-27T05:48:39.624Z,1.80
2022-07-27T05:51:08.375Z,1.50
2022-07-27T05:53:36.364Z,1.38
2022-07-27T05:56:07.989Z,1.70
2022-07-27T05:58:35.880Z,1.73
2022-07-27T06:01:03.789Z,1.67
2022-07-27T06:03:31.764Z,1.60
2022-07-27T06:06:13.652Z,1.80
2022-07-27T06:08:41.413Z,1.52
2022-07-27T06:11:10.685Z,1.60
2022-07-27T06:13:42.221Z,1.50
2022-07-27T06:16:10.942Z,1.60
2022-07-27T06:18:38.776Z,1.75
2022-07-27T06:21:06.644Z,1.77
2022-07-27T06:23:34.484Z,1.60
2022-07-27T06:26:02.230Z,1.92
2022-07-27T06:28:33.848Z,1.65
2022-07-27T06:31:01.787Z,1.65
2022-07-27T06:33:30.764Z,1.33
2022-07-27T06:36:01.490Z,1.58
2022-07-27T06:38:30.174Z,1.80
2022-07-27T06:40:58.284Z,1.58
2022-07-27T06:43:27.512Z,1.50
2022-07-27T06:45:58.220Z,1.77
2022-07-27T06:48:26.580Z,1.73
2022-07-27T06:50:54.502Z,1.70
2022-07-27T06:53:22.758Z,1.80
2022-07-27T06:55:50.619Z,1.55
2022-07-27T06:58:19.123Z,1.60
2022-07-27T07:00:47.583Z,2.00
2022-07-27T07:03:16.913Z,1.75
2022-07-27T07:05:46.560Z,1.67
2022-07-27T07:08:14.817Z,1.60
2022-07-27T07:10:45.751Z,2.00
2022-07-27T07:13:14.060Z,1.80
2022-07-27T07:15:43.253Z,1.58
2022-07-27T07:18:12.817Z,1.70
2022-07-27T07:20:42.488Z,2.10
2022-07-27T07:23:13.590Z,1.75
2022-07-27T07:25:41.769Z,1.73
2022-07-27T07:28:09.557Z,1.60
2022-07-27T07:30:37.829Z,1.65
2022-07-27T07:33:05.891Z,1.90
2022-07-27T07:35:33.985Z,1.40
2022-07-27T07:38:03.406Z,1.85
2022-07-27T07:40:46.748Z,1.40
2022-07-27T07:43:14.916Z,1.63
2022-07-27T07:45:50.433Z,1.33
2022-07-27T07:48:20.580Z,1.60
2022-07-27T07:50:52.119Z,1.30
2022-07-27T07:53:23.075Z,1.38
2022-07-27T07:55:51.312Z,1.42
2022-07-27T07:58:19.421Z,1.55
2022-07-27T08:00:47.360Z,1.35
2022-07-27T08:03:15.898Z,1.98
2022-07-27T08:05:44.035Z,1.50
2022-07-27T08:08:12.083Z,1.80
2022-07-27T08:10:41.313Z,1.45
2022-07-27T08:13:09.692Z,1.55
2022-07-27T08:15:37.493Z,1.50
2022-07-27T08:18:06.428Z,1.67
2022-07-27T08:20:35.054Z,1.27
2022-07-27T08:23:03.392Z,1.20
2022-07-27T08:25:31.662Z,1.48
2022-07-27T08:28:02.016Z,1.50
2022-07-27T08:30:31.074Z,1.30
2022-07-27T08:33:02.358Z,1.33
2022-07-27T08:35:31.671Z,1.50
2022-07-27T08:38:00.311Z,1.20
2022-07-27T08:40:46.007Z,1.10
2022-07-27T08:43:23.660Z,1.65
2022-07-27T08:45:57.952Z,1.58
2022-07-27T08:48:27.060Z,1.38
2022-07-27T08:50:55.579Z,1.25
2022-07-27T08:53:24.120Z,1.48
2022-07-27T08:55:52.219Z,1.27
2022-07-27T08:58:21.338Z,1.13
2022-07-27T09:00:50.889Z,1.50
2022-07-27T09:03:21.529Z,1.65
2022-07-27T09:05:52.372Z,1.60
2022-07-27T09:08:24.061Z,1.30
2022-07-27T09:10:54.660Z,1.30
2022-07-27T09:13:26.623Z,1.20
2022-07-27T09:16:17.543Z,1.70
2022-07-27T09:18:44.124Z,1.30
2022-07-27T09:21:15.517Z,1.60
2022-07-27T09:23:44.847Z,1.30
2022-07-27T09:26:31.283Z,1.23
2022-07-27T09:29:03.553Z,1.20
2022-07-27T09:31:32.262Z,1.52
2022-07-27T09:34:02.777Z,1.35
2022-07-27T09:36:31.745Z,1.15
2022-07-27T09:39:03.397Z,1.05
2022-07-27T09:41:42.558Z,1.10
2022-07-27T09:44:31.348Z,1.35
2022-07-27T09:47:00.725Z,1.70
2022-07-27T09:49:30.560Z,1.48
2022-07-27T09:52:01.696Z,1.40
2022-07-27T09:54:43.872Z,1.20
2022-07-27T09:57:11.736Z,1.55
2022-07-27T09:59:40.817Z,1.23
2022-07-27T10:02:09.263Z,1.17
2022-07-27T10:04:37.207Z,0.90
2022-07-27T10:07:08.347Z,1.17
2022-07-27T10:09:38.802Z,1.35
2022-07-27T10:12:07.189Z,1.20
2022-07-27T10:14:35.286Z,1.38
2022-07-27T10:17:04.835Z,0.85
2022-07-27T10:19:37.902Z,1.50
2022-07-27T10:22:05.662Z,1.10
2022-07-27T10:24:37.278Z,1.00
2022-07-27T10:27:20.526Z,1.13
2022-07-27T10:29:49.114Z,1.40
2022-07-27T10:32:26.450Z,1.20
2022-07-27T10:34:54.512Z,1.02
2022-07-27T10:37:26.494Z,0.90
2022-07-27T10:40:15.987Z,1.40
2022-07-27T10:42:45.481Z,1.35
2022-07-27T10:45:17.429Z,1.45
2022-07-27T10:47:48.620Z,1.17
2022-07-27T10:50:25.588Z,1.02
2022-07-27T10:52:55.900Z,1.17
2022-07-27T10:55:46.629Z,1.45
2022-07-27T10:58:44.570Z,1.08
2022-07-27T11:01:15.479Z,1.05
2022-07-27T11:03:52.476Z,1.10
2022-07-27T11:06:33.063Z,1.20
2022-07-27T11:11:54.406Z,1.00
2022-07-27T11:14:31.189Z,1.23
2022-07-27T11:17:24.325Z,1.30
2022-07-27T11:19:54.506Z,1.10
2022-07-27T11:23:13.969Z,1.20
2022-07-27T11:25:20.507Z,1.08
2022-07-27T11:27:49.335Z,3.95
2022-07-27T11:30:24.845Z,1.65
2022-07-27T11:32:52.758Z,1.17
2022-07-27T11:35:21.954Z,1.30
2022-07-27T11:38:01.184Z,1.83
2022-07-27T11:43:33.830Z,1.10
2022-07-27T11:46:15.992Z,1.05
2022-07-27T11:49:08.434Z,1.33
2022-07-27T11:51:41.568Z,1.10
2022-07-27T11:54:11.481Z,1.30
2022-07-27T11:56:43.300Z,1.20
2022-07-27T11:59:16.969Z,1.33
2022-07-27T12:01:48.371Z,1.20
2022-07-27T12:04:21.742Z,1.40
2022-07-27T12:06:58.472Z,1.00
2022-07-27T12:09:27.222Z,1.35
2022-07-27T12:11:59.176Z,1.05
2022-07-27T12:14:33.194Z,1.17
2022-07-27T12:17:19.096Z,1.50
2022-07-27T12:19:56.014Z,1.17
2022-07-27T12:22:31.427Z,1.10
2022-07-27T12:25:01.287Z,1.38
2022-07-27T12:27:30.164Z,1.38
2022-07-27T12:30:04.173Z,1.10
2022-07-27T12:32:34.785Z,1.30
2022-07-27T12:35:16.446Z,1.25
2022-07-27T12:37:46.233Z,1.60
2022-07-27T12:40:16.737Z,1.33
2022-07-27T12:42:44.881Z,1.20
2022-07-27T12:45:18.394Z,1.23
2022-07-27T12:47:47.251Z,1.27
2022-07-27T12:50:17.343Z,1.10
2022-07-27T12:52:49.229Z,1.20
2022-07-27T12:55:17.712Z,1.17
2022-07-27T12:57:55.805Z,1.27
2022-07-27T13:00:31.079Z,1.00
2022-07-27T13:03:02.148Z,1.20
2022-07-27T13:05:30.008Z,1.00
2022-07-27T13:07:59.302Z,1.25
2022-07-27T13:10:28.702Z,1.23
2022-07-27T13:12:56.688Z,1.10
2022-07-27T13:15:24.479Z,1.20
2022-07-27T13:17:52.211Z,1.48
2022-07-27T13:20:20.580Z,1.50
2022-07-27T13:22:48.835Z,1.30
2022-07-27T13:25:18.781Z,1.50
2022-07-27T13:27:47.782Z,1.15
2022-07-27T13:30:17.321Z,1.10
2022-07-27T13:32:46.661Z,1.38
2022-07-27T13:35:16.620Z,1.25
2022-07-27T13:37:45.141Z,1.60
2022-07-27T13:40:13.411Z,1.35
2022-07-27T13:42:42.534Z,1.08
2022-07-27T13:45:12.189Z,1.40
2022-07-27T13:47:40.973Z,1.23
2022-07-27T13:50:17.249Z,1.15
2022-07-27T13:52:46.130Z,1.30
2022-07-27T13:55:14.616Z,1.20
2022-07-27T13:57:43.920Z,1.10
2022-07-27T14:00:13.203Z,1.05
2022-07-27T14:02:41.989Z,1.80
2022-07-27T14:05:14.098Z,1.30
2022-07-27T14:07:42.875Z,1.10
2022-07-27T14:10:30.798Z,1.30
2022-07-27T14:13:07.859Z,1.30
2022-07-27T14:15:50.686Z,1.40
2022-07-27T14:18:22.934Z,1.33
2022-07-27T14:20:50.698Z,1.40
2022-07-27T14:23:18.462Z,1.30
2022-07-27T14:25:46.425Z,1.40
2022-07-27T14:28:16.068Z,0.98
2022-07-27T14:30:43.926Z,1.48
2022-07-27T14:33:11.729Z,1.20
2022-07-27T14:35:40.853Z,1.20
2022-07-27T14:38:09.430Z,1.40
2022-07-27T14:40:37.619Z,1.17
2022-07-27T14:43:06.254Z,1.60
2022-07-27T14:45:44.935Z,1.50
2022-07-27T14:48:21.077Z,1.10
2022-07-27T14:50:53.137Z,1.45
2022-07-27T14:53:20.886Z,1.13
2022-07-27T14:55:48.660Z,1.63
2022-07-27T14:58:16.392Z,1.52
2022-07-27T15:00:45.587Z,1.30
2022-07-27T15:03:14.750Z,1.15
2022-07-27T15:05:49.307Z,1.50
2022-07-27T15:08:18.724Z,1.55
2022-07-27T15:10:46.620Z,1.10
2022-07-27T15:13:14.729Z,1.35
2022-07-27T15:15:42.760Z,1.27
2022-07-27T15:18:11.910Z,1.17
2022-07-27T15:20:39.699Z,1.60
2022-07-27T15:23:07.621Z,1.25
2022-07-27T15:25:35.735Z,1.55
2022-07-27T15:28:03.557Z,1.00
2022-07-27T15:30:37.916Z,1.30
2022-07-27T15:33:06.400Z,1.40
2022-07-27T15:35:35.862Z,1.63
2022-07-27T15:38:03.816Z,1.50
2022-07-27T15:40:41.837Z,1.13
2022-07-27T15:43:12.075Z,1.50
2022-07-27T15:45:40.625Z,1.40
2022-07-27T15:48:09.886Z,1.60
2022-07-27T15:50:41.330Z,1.63
2022-07-27T15:53:14.697Z,1.75
2022-07-27T15:55:44.329Z,1.30
2022-07-27T15:58:13.542Z,1.80
2022-07-27T16:00:41.795Z,1.10
2022-07-27T16:03:10.485Z,1.23
2022-07-27T16:05:40.573Z,1.63
2022-07-27T16:08:09.910Z,1.80
2022-07-27T16:10:38.948Z,1.77
2022-07-27T16:13:07.018Z,1.55
2022-07-27T16:15:53.240Z,1.35
2022-07-27T16:18:21.205Z,3.17
2022-07-27T16:20:50.308Z,1.50
2022-07-27T16:23:21.202Z,1.15
2022-07-27T16:26:03.910Z,1.50
2022-07-27T16:28:34.042Z,1.58
2022-07-27T16:31:01.919Z,1.13
2022-07-27T16:33:30.317Z,1.40
2022-07-27T16:35:59.841Z,1.30
2022-07-27T16:38:28.294Z,1.52
2022-07-27T16:40:56.180Z,1.30
2022-07-27T16:43:25.221Z,1.10
2022-07-27T16:46:07.879Z,1.10
2022-07-27T16:48:41.908Z,1.13
2022-07-27T16:51:12.694Z,1.17
2022-07-27T16:53:42.194Z,1.25
2022-07-27T16:56:10.468Z,1.20
2022-07-27T16:58:38.592Z,1.33
2022-07-27T17:01:07.361Z,1.35
2022-07-27T17:03:39.652Z,1.25
2022-07-27T17:06:07.713Z,1.30
2022-07-27T17:08:37.323Z,1.17
2022-07-27T17:11:06.493Z,1.13
2022-07-27T17:13:35.357Z,1.30
2022-07-27T17:16:03.648Z,1.20
2022-07-27T17:18:37.163Z,1.35
2022-07-27T17:21:10.192Z,1.40
2022-07-27T17:23:39.871Z,1.35
2022-07-27T17:26:08.839Z,1.27
2022-07-27T17:28:39.150Z,1.45
2022-07-27T17:31:09.151Z,1.30
2022-07-27T17:33:37.699Z,1.40
2022-07-27T17:36:09.584Z,1.10
2022-07-27T17:38:43.585Z,1.20
2022-07-27T17:41:11.438Z,1.20
2022-07-27T17:43:39.495Z,1.10
2022-07-27T17:46:07.555Z,1.30
2022-07-27T17:48:35.920Z,1.33
2022-07-27T17:51:04.287Z,1.50
2022-07-27T17:53:32.255Z,1.27
2022-07-27T17:56:02.808Z,1.13
2022-07-27T17:58:30.859Z,1.08
2022-07-27T18:00:59.045Z,1.48
2022-07-27T18:03:26.950Z,1.35
2022-07-27T18:05:54.986Z,1.23
2022-07-27T18:08:22.856Z,1.40
2022-07-27T18:10:51.500Z,1.23
2022-07-27T18:13:20.978Z,1.20
2022-07-27T18:15:49.059Z,1.20
2022-07-27T18:18:18.241Z,1.60
2022-07-27T18:20:46.290Z,1.25
2022-07-27T18:23:14.391Z,1.40
2022-07-27T18:25:42.585Z,1.20
2022-07-27T18:28:10.754Z,1.23
2022-07-27T18:30:39.881Z,1.27
2022-07-27T18:33:07.757Z,1.25
2022-07-27T18:35:35.949Z,1.40
2022-07-27T18:38:04.593Z,1.50
2022-07-27T18:40:32.324Z,1.50
2022-07-27T18:43:00.084Z,1.30
2022-07-27T18:45:34.205Z,1.60
2022-07-27T18:48:04.553Z,1.27
2022-07-27T18:50:37.030Z,1.73
2022-07-27T18:53:07.313Z,1.90
2022-07-27T18:55:35.091Z,1.85
2022-07-27T18:58:03.466Z,2.22
2022-07-27T19:00:31.820Z,2.00
2022-07-27T19:02:59.670Z,1.70
2022-07-27T19:05:40.490Z,2.00
2022-07-27T19:08:13.471Z,1.60
2022-07-27T19:10:42.421Z,1.58
2022-07-27T19:13:11.075Z,1.80
2022-07-27T19:15:38.984Z,1.50
2022-07-27T19:18:07.550Z,1.75
2022-07-27T19:20:37.651Z,1.92
2022-07-27T19:23:05.606Z,1.25
2022-07-27T19:25:33.831Z,1.48
2022-07-27T19:28:02.166Z,1.67
2022-07-27T19:30:30.211Z,1.70
2022-07-27T19:32:58.077Z,4.22
2022-07-27T19:35:25.862Z,5.65
2022-07-27T19:37:55.075Z,1.63
2022-07-27T19:43:11.306Z,1.80
2022-07-27T19:45:39.328Z,1.80
2022-07-27T19:48:08.522Z,2.05
2022-07-27T19:50:36.386Z,1.98
2022-07-27T19:53:05.838Z,1.85
2022-07-27T19:55:34.030Z,1.98
2022-07-27T19:58:02.112Z,2.00
2022-07-27T20:00:30.761Z,2.22
2022-07-27T20:02:58.565Z,2.28
2022-07-27T20:05:26.366Z,2.08
2022-07-27T20:07:54.137Z,2.25
2022-07-27T20:10:25.171Z,2.13
2022-07-27T20:12:53.636Z,2.00
2022-07-27T20:15:22.522Z,1.90
2022-07-27T20:17:50.573Z,1.98
2022-07-27T20:20:18.504Z,1.75
2022-07-27T20:22:46.272Z,1.35
2022-07-27T20:25:14.907Z,1.70
2022-07-27T20:27:44.034Z,1.60
2022-07-27T20:30:14.645Z,1.58
2022-07-27T20:32:42.457Z,1.48
2022-07-27T20:35:10.704Z,1.27
2022-07-27T20:37:38.745Z,1.50
2022-07-27T20:40:09.653Z,1.63
2022-07-27T20:42:37.392Z,2.20
2022-07-27T20:45:13.780Z,2.92
2022-07-27T20:47:42.019Z,2.65
2022-07-27T20:50:11.890Z,2.80
2022-07-27T20:52:40.437Z,2.50
2022-07-27T20:55:10.785Z,1.98
2022-07-27T20:57:38.989Z,1.58
2022-07-27T21:00:09.891Z,1.85
2022-07-27T21:02:38.528Z,1.90
2022-07-27T21:05:07.551Z,1.40
2022-07-27T21:07:35.293Z,1.60
2022-07-27T21:10:03.146Z,1.60
2022-07-27T21:12:30.931Z,2.05
2022-07-27T21:14:58.903Z,1.80
2022-07-27T21:17:28.229Z,2.28
2022-07-27T21:19:55.953Z,2.57
2022-07-27T21:22:23.746Z,3.28
2022-07-27T21:24:51.727Z,2.97
2022-07-27T21:27:21.295Z,3.42
2022-07-27T21:29:49.448Z,5.22
2022-07-27T21:32:17.389Z,4.95
2022-07-27T21:34:46.497Z,5.30
2022-07-27T21:37:14.400Z,5.13
2022-07-27T21:39:42.225Z,5.68
2022-07-27T21:42:09.991Z,6.30
2022-07-27T21:44:37.732Z,6.78
2022-07-27T21:47:10.109Z,6.45
2022-07-27T21:49:41.350Z,5.38
2022-07-27T21:52:11.270Z,5.68
2022-07-27T21:54:39.360Z,5.93
2022-07-27T21:57:07.101Z,6.00
2022-07-27T21:59:34.817Z,5.50
2022-07-27T22:02:02.582Z,6.35
2022-07-27T22:04:30.408Z,5.40
2022-07-27T22:06:58.330Z,6.30
2022-07-27T22:09:27.405Z,5.88
2022-07-27T22:11:56.601Z,4.45
2022-07-27T22:14:24.566Z,5.25
2022-07-27T22:16:52.949Z,5.47
2022-07-27T22:19:20.762Z,5.43
2022-07-27T22:21:48.532Z,5.10
2022-07-27T22:24:16.747Z,5.35
2022-07-27T22:26:46.164Z,5.78
2022-07-27T22:29:13.970Z,5.07
2022-07-27T22:31:42.081Z,5.13
2022-07-27T22:34:10.087Z,5.13
2022-07-27T22:36:38.174Z,5.13
2022-07-27T22:39:05.911Z,5.00
2022-07-27T22:41:33.820Z,4.30
2022-07-27T22:44:02.870Z,4.47
2022-07-27T22:46:30.838Z,4.20
2022-07-27T22:48:59.001Z,3.80
2022-07-27T22:51:26.804Z,3.90
2022-07-27T22:54:14.809Z,3.10
2022-07-27T22:56:42.913Z,3.43
2022-07-27T22:59:11.983Z,3.20
2022-07-27T23:01:47.284Z,2.83
2022-07-27T23:04:16.272Z,2.83
2022-07-27T23:06:44.679Z,2.50
2022-07-27T23:09:12.538Z,2.00
2022-07-27T23:11:40.301Z,1.80
2022-07-27T23:14:08.733Z,1.63
2022-07-27T23:16:37.885Z,1.90
2022-07-27T23:19:05.739Z,1.97
2022-07-27T23:21:33.521Z,2.20
2022-07-27T23:24:01.702Z,2.23
2022-07-27T23:26:32.709Z,2.20
2022-07-27T23:29:01.661Z,2.30
2022-07-27T23:31:29.475Z,2.20
2022-07-27T23:33:58.578Z,2.30
2022-07-27T23:36:26.642Z,2.00
2022-07-27T23:38:54.410Z,1.90
2022-07-27T23:41:22.207Z,1.90
2022-07-27T23:43:50.041Z,1.90
2022-07-27T23:46:17.937Z,2.33
2022-07-27T23:48:45.809Z,2.10
2022-07-27T23:51:18.734Z,1.70
2022-07-27T23:53:47.516Z,2.00
2022-07-27T23:56:15.491Z,2.00
2022-07-27T23:58:43.431Z,1.83
